An Xiu Shan — BRQV — position and weather

sailwx.info

Track history (hours):
 
Tides and Currents Weather Stations Pressure Air Temp Water Temp Dewpoint Dewpoint Depression Visibility Wind Speed Wind Dir Waves Ship Positions

An Xiu Shan

Last reported at 2016-May-25 08:33 UTC. Time now 2016-May-29 19:12 UTC.
Position N 24°17' E 118°50'.

Length 199 m; draft 12.7 m.

Type: Cargo ship. MMSI: 413195000.

Date/timePositionNaut miles runAvg speedWind from/ knotsBaromVisibWave heightAir tempDewpointWater temp
2016-May-25 08:33N 24°17' E 118°50'2310.8
2016-May-25 06:22N 24°32' E 119°10'398 9.9
2016-May-23 14:16N 30°19' E 122°49'6 8.8
2016-May-23 13:33N 30°25' E 122°51'9 9.3
2016-May-23 12:33N 30°34' E 122°53'34010.2
2016-May-22 03:18N 36°14' E 122°43'2010.5
2016-May-22 01:22N 36°34' E 122°44'810.1
2016-May-22 00:33N 36°42' E 122°45'10 9.6
2016-May-21 23:33N 36°52' E 122°45'9 8.9
2016-May-21 22:33N 37°00' E 122°46'9 8.6
2016-May-21 21:33N 37°09' E 122°46'9 8.9
2016-May-21 20:33N 37°18' E 122°46'9 9.5
2016-May-21 19:33N 37°27' E 122°45'1110.6
2016-May-21 18:33N 37°36' E 122°37'1111.2
2016-May-21 17:33N 37°44' E 122°27'1210.9
2016-May-21 16:27N 37°50' E 122°14'8310.5
2016-May-21 08:30N 38°35' E 120°45'9 9.4
2016-May-21 07:32N 38°41' E 120°36'9 9.6
2016-May-21 06:33N 38°49' E 120°29'47 9.3
2016-May-21 01:29N 39°30' E 119°58'1310.3
2016-May-21 00:16N 39°41' E 119°50'710.2
2016-May-20 23:33N 39°47' E 119°46'9 9.3
2016-May-20 22:33N 39°55' E 119°40'0 0.2
2016-May-20 21:26N 39°55' E 119°40'0 0.0
2016-May-20 20:32N 39°55' E 119°40'0 0.0
2016-May-20 19:32N 39°55' E 119°40'0 0.0
2016-May-20 18:32N 39°55' E 119°40'0 0.0
2016-May-20 17:32N 39°55' E 119°40'0 0.0
2016-May-20 16:32N 39°55' E 119°40'0 0.0
2016-May-20 15:32N 39°55' E 119°40'0 0.0
2016-May-20 14:20N 39°55' E 119°40'0 0.0
2016-May-20 13:32N 39°55' E 119°40'0 0.0
2016-May-20 12:32N 39°55' E 119°40'0 0.0
2016-May-20 11:32N 39°55' E 119°40'0 0.0
2016-May-20 09:26N 39°55' E 119°40'0 0.0
2016-May-20 08:32N 39°55' E 119°40'0 0.0
2016-May-20 07:32N 39°55' E 119°40'0 0.0
2016-May-20 06:33N 39°55' E 119°40'0 0.0
2016-May-20 04:32N 39°55' E 119°40'0 0.2
2016-May-20 03:33N 39°55' E 119°40'8 8.0
2016-May-20 02:33N 39°51' E 119°49'0 0.0
2016-May-20 01:29N 39°51' E 119°49'0 0.0
2016-May-20 00:29N 39°51' E 119°49'0 0.0
2016-May-19 23:17N 39°51' E 119°49'0 0.1
2016-May-19 22:29N 39°51' E 119°49'0 0.1
2016-May-19 21:29N 39°51' E 119°49'0 0.0
2016-May-19 20:17N 39°51' E 119°49'0 0.0
2016-May-19 19:29N 39°51' E 119°49'0 0.0
2016-May-19 18:30N 39°51' E 119°49'7 7.3
2016-May-19 17:32N 39°45' E 119°53'7411.9
2016-May-19 11:19N 38°45' E 120°50'911.3
2016-May-19 10:33N 38°39' E 120°57'1111.1
2016-May-19 09:33N 38°31' E 121°08'2511.7
2016-May-19 07:28N 38°17' E 121°33'4912.4
2016-May-19 03:32N 37°50' E 122°25'1111.5
2016-May-19 02:33N 37°44' E 122°37'1211.0
2016-May-19 01:28N 37°34' E 122°45'1111.3
2016-May-19 00:32N 37°25' E 122°52'1111.5
2016-May-18 23:33N 37°14' E 122°54'1211.9
2016-May-18 22:33N 37°02' E 122°55'1212.3
2016-May-18 21:33N 36°50' E 122°56'1312.0
2016-May-18 20:31N 36°37' E 122°54'1212.3
2016-May-18 19:33N 36°26' E 122°54'1212.2
2016-May-18 18:33N 36°13' E 122°54'22911.9
2016-May-17 23:19N 32°25' E 122°52'1111.8
2016-May-17 22:21N 32°14' E 122°54'1011.7
2016-May-17 21:30N 32°04' E 122°54'1111.8
2016-May-17 20:33N 31°53' E 122°54'1111.4
2016-May-17 19:33N 31°41' E 122°54'1310.7
2016-May-17 18:22N 31°29' E 122°53'1411.2
2016-May-17 17:07N 31°15' E 122°53'611.4
2016-May-17 16:33N 31°08' E 122°51'1111.0
2016-May-17 15:33N 30°59' E 122°44'1411.8
2016-May-17 14:20N 31°00' E 122°27'2411.7
2016-May-17 12:19N 31°05' E 122°00'1111.0
2016-May-17 11:20N 31°11' E 121°50'1012.4
2016-May-17 10:31N 31°19' E 121°42'1111.7
2016-May-17 09:33N 31°25' E 121°31'1110.8
2016-May-17 08:33N 31°32' E 121°21'1413.9
2016-May-17 07:33N 31°41' E 121°10'1413.6
2016-May-17 06:33N 31°48' E 120°56'1413.5
2016-May-17 05:29N 32°00' E 120°47'1312.5
2016-May-17 04:29N 32°01' E 120°33'910.2
2016-May-17 03:34N 31°60' E 120°22'11 5.4
2016-May-17 01:26N 31°56' E 120°09'0 0.0
2016-May-17 00:26N 31°56' E 120°09'0 0.0
2016-May-15 11:31N 31°56' E 120°09'2 2.4
2016-May-15 10:31N 31°56' E 120°12'9 8.5
2016-May-15 09:31N 31°59' E 120°21'  
Track history (hours):
 
Tides and Currents Weather Stations Pressure Air Temp Water Temp Dewpoint Dewpoint Depression Visibility Wind Speed Wind Dir Waves Ship Positions

An Xiu Shan

Last reported at 2016-May-25 08:33 UTC. Time now 2016-May-29 19:12 UTC.
Position N 24°17' E 118°50'.

Length 199 m; draft 12.7 m.

Type: Cargo ship. MMSI: 413195000.

Date/timePositionNaut miles runAvg speedWind from/ knotsBaromVisibWave heightAir tempDewpointWater temp
2016-May-25 08:33N 24°17' E 118°50'2310.8
2016-May-25 06:22N 24°32' E 119°10'398 9.9
2016-May-23 14:16N 30°19' E 122°49'6 8.8
2016-May-23 13:33N 30°25' E 122°51'9 9.3
2016-May-23 12:33N 30°34' E 122°53'34010.2
2016-May-22 03:18N 36°14' E 122°43'2010.5
2016-May-22 01:22N 36°34' E 122°44'810.1
2016-May-22 00:33N 36°42' E 122°45'10 9.6
2016-May-21 23:33N 36°52' E 122°45'9 8.9
2016-May-21 22:33N 37°00' E 122°46'9 8.6
2016-May-21 21:33N 37°09' E 122°46'9 8.9
2016-May-21 20:33N 37°18' E 122°46'9 9.5
2016-May-21 19:33N 37°27' E 122°45'1110.6
2016-May-21 18:33N 37°36' E 122°37'1111.2
2016-May-21 17:33N 37°44' E 122°27'1210.9
2016-May-21 16:27N 37°50' E 122°14'8310.5
2016-May-21 08:30N 38°35' E 120°45'9 9.4
2016-May-21 07:32N 38°41' E 120°36'9 9.6
2016-May-21 06:33N 38°49' E 120°29'47 9.3
2016-May-21 01:29N 39°30' E 119°58'1310.3
2016-May-21 00:16N 39°41' E 119°50'710.2
2016-May-20 23:33N 39°47' E 119°46'9 9.3
2016-May-20 22:33N 39°55' E 119°40'0 0.2
2016-May-20 21:26N 39°55' E 119°40'0 0.0
2016-May-20 20:32N 39°55' E 119°40'0 0.0
2016-May-20 19:32N 39°55' E 119°40'0 0.0
2016-May-20 18:32N 39°55' E 119°40'0 0.0
2016-May-20 17:32N 39°55' E 119°40'0 0.0
2016-May-20 16:32N 39°55' E 119°40'0 0.0
2016-May-20 15:32N 39°55' E 119°40'0 0.0
2016-May-20 14:20N 39°55' E 119°40'0 0.0
2016-May-20 13:32N 39°55' E 119°40'0 0.0
2016-May-20 12:32N 39°55' E 119°40'0 0.0
2016-May-20 11:32N 39°55' E 119°40'0 0.0
2016-May-20 09:26N 39°55' E 119°40'0 0.0
2016-May-20 08:32N 39°55' E 119°40'0 0.0
2016-May-20 07:32N 39°55' E 119°40'0 0.0
2016-May-20 06:33N 39°55' E 119°40'0 0.0
2016-May-20 04:32N 39°55' E 119°40'0 0.2
2016-May-20 03:33N 39°55' E 119°40'8 8.0
2016-May-20 02:33N 39°51' E 119°49'0 0.0
2016-May-20 01:29N 39°51' E 119°49'0 0.0
2016-May-20 00:29N 39°51' E 119°49'0 0.0
2016-May-19 23:17N 39°51' E 119°49'0 0.1
2016-May-19 22:29N 39°51' E 119°49'0 0.1
2016-May-19 21:29N 39°51' E 119°49'0 0.0
2016-May-19 20:17N 39°51' E 119°49'0 0.0
2016-May-19 19:29N 39°51' E 119°49'0 0.0
2016-May-19 18:30N 39°51' E 119°49'7 7.3
2016-May-19 17:32N 39°45' E 119°53'7411.9
2016-May-19 11:19N 38°45' E 120°50'911.3
2016-May-19 10:33N 38°39' E 120°57'1111.1
2016-May-19 09:33N 38°31' E 121°08'2511.7
2016-May-19 07:28N 38°17' E 121°33'4912.4
2016-May-19 03:32N 37°50' E 122°25'1111.5
2016-May-19 02:33N 37°44' E 122°37'1211.0
2016-May-19 01:28N 37°34' E 122°45'1111.3
2016-May-19 00:32N 37°25' E 122°52'1111.5
2016-May-18 23:33N 37°14' E 122°54'1211.9
2016-May-18 22:33N 37°02' E 122°55'1212.3
2016-May-18 21:33N 36°50' E 122°56'1312.0
2016-May-18 20:31N 36°37' E 122°54'1212.3
2016-May-18 19:33N 36°26' E 122°54'1212.2
2016-May-18 18:33N 36°13' E 122°54'22911.9
2016-May-17 23:19N 32°25' E 122°52'1111.8
2016-May-17 22:21N 32°14' E 122°54'1011.7
2016-May-17 21:30N 32°04' E 122°54'1111.8
2016-May-17 20:33N 31°53' E 122°54'1111.4
2016-May-17 19:33N 31°41' E 122°54'1310.7
2016-May-17 18:22N 31°29' E 122°53'1411.2
2016-May-17 17:07N 31°15' E 122°53'611.4
2016-May-17 16:33N 31°08' E 122°51'1111.0
2016-May-17 15:33N 30°59' E 122°44'1411.8
2016-May-17 14:20N 31°00' E 122°27'2411.7
2016-May-17 12:19N 31°05' E 122°00'1111.0
2016-May-17 11:20N 31°11' E 121°50'1012.4
2016-May-17 10:31N 31°19' E 121°42'1111.7
2016-May-17 09:33N 31°25' E 121°31'1110.8
2016-May-17 08:33N 31°32' E 121°21'1413.9
2016-May-17 07:33N 31°41' E 121°10'1413.6
2016-May-17 06:33N 31°48' E 120°56'1413.5
2016-May-17 05:29N 32°00' E 120°47'1312.5
2016-May-17 04:29N 32°01' E 120°33'910.2
2016-May-17 03:34N 31°60' E 120°22'11 5.4
2016-May-17 01:26N 31°56' E 120°09'0 0.0
2016-May-17 00:26N 31°56' E 120°09'0 0.0
2016-May-15 11:31N 31°56' E 120°09'2 2.4
2016-May-15 10:31N 31°56' E 120°12'9 8.5
2016-May-15 09:31N 31°59' E 120°21'  

Dump ship's entire track history